Time;durP1;ratioP1;P1;durP2;ratioP2;P2;SDS_P1;SDS_P2;PMS_P1;PMS_P2;Temp;Humidity;BMP_temperature;BMP_pressure;BME280_temperature;BME280_humidity;BME280_pressure;Samples;Min_cycle;Max_cycle;Signal;HPM_P1;HPM_P2
2023/05/16 00:00:24;;;;;;;19.25;3.55;;;10.70;99.90;;;;;;5077047;28;20102;-72
2023/05/16 00:02:50;;;;;;;19.58;3.20;;;10.70;99.90;;;;;;5077085;28;20044;-72
2023/05/16 00:05:16;;;;;;;16.20;3.08;;;10.60;99.90;;;;;;5060243;28;20047;-72
2023/05/16 00:07:43;;;;;;;17.63;3.85;;;10.60;99.90;;;;;;5077366;28;20032;-72
2023/05/16 00:10:10;;;;;;;18.33;2.83;;;10.60;99.90;;;;;;5077113;28;20035;-71
2023/05/16 00:12:36;;;;;;;13.95;2.83;;;10.60;99.90;;;;;;5076848;28;20036;-72
2023/05/16 00:15:09;;;;;;;18.42;3.33;;;10.50;99.90;;;;;;5076745;28;20040;-72
2023/05/16 00:17:35;;;;;;;24.80;3.25;;;10.50;99.90;;;;;;5076974;28;20093;-72
2023/05/16 00:20:06;;;;;;;18.42;3.60;;;10.40;99.90;;;;;;5076659;28;20110;-72
2023/05/16 00:22:32;;;;;;;18.00;2.88;;;10.40;99.90;;;;;;5076667;28;20047;-72
2023/05/16 00:24:58;;;;;;;15.00;2.38;;;10.40;99.90;;;;;;5076452;28;20032;-72
2023/05/16 00:27:23;;;;;;;17.35;2.83;;;10.40;99.90;;;;;;5076857;28;20061;-72
2023/05/16 00:29:49;;;;;;;20.83;3.25;;;10.30;99.90;;;;;;5060051;28;20499;-71
2023/05/16 00:32:14;;;;;;;18.52;3.30;;;10.30;99.90;;;;;;5059837;28;20476;-72
2023/05/16 00:34:40;;;;;;;16.38;2.92;;;10.30;99.90;;;;;;5059788;28;20047;-72
2023/05/16 00:37:06;;;;;;;18.70;3.38;;;10.30;99.90;;;;;;5059938;28;20036;-72
2023/05/16 00:39:31;;;;;;;19.98;3.33;;;10.20;99.90;;;;;;5076229;28;20510;-72
2023/05/16 00:41:57;;;;;;;17.10;3.58;;;10.20;99.90;;;;;;5059696;28;20054;-72
2023/05/16 00:44:23;;;;;;;16.33;3.28;;;10.10;99.90;;;;;;5076116;28;20043;-72
2023/05/16 00:46:48;;;;;;;22.63;3.45;;;10.10;99.90;;;;;;5059722;28;20066;-72
2023/05/16 00:49:14;;;;;;;18.58;2.72;;;10.10;99.90;;;;;;5076381;28;20028;-72
2023/05/16 00:51:40;;;;;;;18.10;3.70;;;10.00;99.90;;;;;;5076294;28;20481;-71
2023/05/16 00:54:06;;;;;;;17.30;2.67;;;10.00;99.90;;;;;;5076261;28;20478;-72
2023/05/16 00:56:32;;;;;;;15.43;2.72;;;10.00;99.90;;;;;;5075958;28;20040;-72
2023/05/16 00:58:58;;;;;;;17.17;3.17;;;10.00;99.90;;;;;;5075765;28;20046;-72
2023/05/16 01:01:26;;;;;;;15.30;2.22;;;9.90;99.90;;;;;;5075299;28;20040;-72
2023/05/16 01:03:52;;;;;;;15.65;2.90;;;9.90;99.90;;;;;;5075860;28;20058;-71
2023/05/16 01:06:18;;;;;;;26.38;3.75;;;9.90;99.90;;;;;;5059035;28;20040;-72
2023/05/16 01:08:44;;;;;;;13.93;2.70;;;9.90;99.90;;;;;;5075692;28;20031;-71
2023/05/16 01:11:41;;;;;;;14.77;2.95;;;9.80;99.90;;;;;;5059337;28;20036;-72
2023/05/16 01:14:12;;;;;;;18.63;2.88;;;9.80;99.90;;;;;;5075638;28;20097;-72
2023/05/16 01:17:10;;;;;;;15.95;2.80;;;9.70;99.90;;;;;;5075605;28;20044;-72
2023/05/16 01:20:14;;;;;;;19.40;3.25;;;9.80;99.90;;;;;;5059117;28;20105;-72
2023/05/16 01:22:59;;;;;;;16.05;2.65;;;9.70;99.90;;;;;;5058903;28;20040;-72
2023/05/16 01:25:42;;;;;;;14.32;2.47;;;9.70;99.90;;;;;;5059011;28;20040;-72
2023/05/16 01:28:08;;;;;;;15.65;2.72;;;9.70;99.90;;;;;;5075529;28;20408;-72
2023/05/16 01:30:39;;;;;;;18.88;2.70;;;9.60;99.90;;;;;;5075653;28;20126;-72
2023/05/16 01:33:05;;;;;;;15.95;2.63;;;9.60;99.90;;;;;;5075475;28;20040;-72
2023/05/16 01:35:31;;;;;;;17.75;3.65;;;9.60;99.90;;;;;;5075317;28;20050;-72
2023/05/16 01:38:02;;;;;;;13.38;2.35;;;9.60;99.90;;;;;;5075304;28;20043;-72
2023/05/16 01:40:52;;;;;;;13.50;2.85;;;9.50;99.90;;;;;;5075239;28;20127;-71
2023/05/16 01:43:29;;;;;;;12.88;2.38;;;9.50;99.90;;;;;;5058934;28;20044;-72
2023/05/16 01:46:02;;;;;;;13.63;2.10;;;9.50;99.90;;;;;;5075553;28;20044;-73
2023/05/16 01:48:36;;;;;;;15.85;2.40;;;9.50;99.90;;;;;;5075427;28;20065;-71
2023/05/16 01:51:02;;;;;;;17.17;2.97;;;9.50;99.90;;;;;;5075184;28;20055;-72
2023/05/16 01:53:37;;;;;;;19.17;2.95;;;9.50;99.90;;;;;;5075169;28;20089;-72
2023/05/16 01:56:07;;;;;;;16.77;2.58;;;9.50;99.90;;;;;;5075212;28;20044;-72
2023/05/16 01:58:35;;;;;;;15.30;2.22;;;9.50;99.90;;;;;;5074977;28;20075;-71
2023/05/16 02:01:02;;;;;;;14.85;3.05;;;9.50;99.90;;;;;;5074984;28;20559;-72
2023/05/16 02:03:29;;;;;;;14.30;2.30;;;9.50;99.90;;;;;;5075091;28;20036;-72
2023/05/16 02:05:55;;;;;;;19.25;3.15;;;9.50;99.90;;;;;;5075008;28;20086;-72
2023/05/16 02:08:21;;;;;;;15.82;3.03;;;9.40;99.90;;;;;;5075042;28;20080;-71
2023/05/16 02:10:46;;;;;;;20.65;3.08;;;9.40;99.90;;;;;;5075207;28;20067;-72
2023/05/16 02:13:12;;;;;;;19.27;3.20;;;9.30;99.90;;;;;;5060895;28;20392;-72
2023/05/16 02:15:38;;;;;;;20.95;2.45;;;9.30;99.90;;;;;;5079432;28;20032;-72
2023/05/16 02:18:03;;;;;;;14.85;2.50;;;9.30;99.90;;;;;;5062307;28;20492;-72
2023/05/16 02:20:29;;;;;;;14.80;2.50;;;9.30;99.90;;;;;;5078938;28;20036;-72
2023/05/16 02:22:55;;;;;;;13.00;2.17;;;9.20;99.90;;;;;;5079206;28;20036;-71
2023/05/16 02:25:21;;;;;;;14.82;2.03;;;9.20;99.90;;;;;;5078868;28;20420;-72
2023/05/16 02:27:46;;;;;;;19.08;2.92;;;9.20;99.90;;;;;;5078883;28;20123;-72
2023/05/16 02:30:12;;;;;;;13.18;2.30;;;9.30;99.90;;;;;;5079025;28;20052;-72
2023/05/16 02:32:43;;;;;;;12.93;2.53;;;9.30;99.90;;;;;;5078780;28;20519;-71
2023/05/16 02:35:10;;;;;;;15.63;2.35;;;9.40;99.90;;;;;;5062029;28;20510;-72
2023/05/16 02:37:36;;;;;;;18.92;3.22;;;9.40;99.90;;;;;;5078659;28;20114;-72
2023/05/16 02:40:04;;;;;;;14.50;2.72;;;9.40;99.90;;;;;;5079127;28;20129;-72
2023/05/16 02:42:31;;;;;;;14.32;3.17;;;9.30;99.90;;;;;;5078592;28;20044;-72
2023/05/16 02:44:56;;;;;;;14.65;2.45;;;9.30;99.90;;;;;;5061778;28;20040;-72
2023/05/16 02:47:22;;;;;;;10.95;2.13;;;9.30;99.90;;;;;;5078479;28;20040;-72
2023/05/16 02:49:48;;;;;;;17.98;2.35;;;9.20;99.90;;;;;;5078342;28;20043;-72
2023/05/16 02:52:13;;;;;;;12.85;2.75;;;9.20;99.90;;;;;;5061711;28;20065;-72
2023/05/16 02:54:39;;;;;;;15.60;2.03;;;9.10;99.90;;;;;;5078363;28;20062;-72
2023/05/16 02:57:05;;;;;;;14.93;2.55;;;9.10;99.90;;;;;;5078273;28;20081;-72
2023/05/16 02:59:30;;;;;;;18.83;3.00;;;9.00;99.90;;;;;;5077969;28;20036;-72
2023/05/16 03:01:56;;;;;;;14.43;2.53;;;9.00;99.90;;;;;;5078504;28;20099;-72
2023/05/16 03:04:22;;;;;;;22.00;2.22;;;9.00;99.90;;;;;;5078101;28;20040;-72
2023/05/16 03:06:50;;;;;;;19.98;2.83;;;8.90;99.90;;;;;;5061514;28;20032;-72
2023/05/16 03:09:15;;;;;;;13.90;2.40;;;8.80;99.90;;;;;;5061341;28;20047;-71
2023/05/16 03:11:41;;;;;;;14.45;2.42;;;8.80;99.90;;;;;;5061327;28;20036;-72
2023/05/16 03:14:07;;;;;;;13.75;2.22;;;8.80;99.90;;;;;;5077978;28;20059;-72
2023/05/16 03:16:33;;;;;;;12.18;2.53;;;8.70;99.90;;;;;;5061265;28;20032;-72
2023/05/16 03:18:58;;;;;;;19.88;2.78;;;8.70;99.90;;;;;;5077867;28;20044;-71
2023/05/16 03:21:24;;;;;;;15.35;2.33;;;8.70;99.90;;;;;;5077825;28;20044;-71
2023/05/16 03:23:50;;;;;;;12.88;2.17;;;8.70;99.90;;;;;;5060784;28;20043;-72
2023/05/16 03:26:16;;;;;;;15.73;2.45;;;8.60;99.90;;;;;;5061639;28;20044;-72
2023/05/16 03:28:41;;;;;;;15.73;2.47;;;8.60;99.90;;;;;;5078399;28;20036;-72
2023/05/16 03:31:07;;;;;;;17.55;2.40;;;8.50;99.90;;;;;;5061088;28;20412;-71
2023/05/16 03:33:32;;;;;;;13.38;2.75;;;8.60;99.90;;;;;;5077624;28;20040;-71
2023/05/16 03:35:58;;;;;;;16.25;2.83;;;8.50;99.90;;;;;;5077614;28;20146;-71
2023/05/16 03:38:24;;;;;;;16.13;2.50;;;8.50;99.90;;;;;;5077607;28;20036;-72
2023/05/16 03:40:50;;;;;;;17.95;2.67;;;8.50;99.90;;;;;;5077676;28;20044;-71
2023/05/16 03:43:15;;;;;;;17.50;2.35;;;8.50;99.90;;;;;;5077700;28;20040;-72
2023/05/16 03:45:42;;;;;;;13.60;2.25;;;8.50;99.90;;;;;;5077288;28;20459;-72
2023/05/16 03:48:08;;;;;;;14.98;2.53;;;8.50;99.90;;;;;;5077326;28;20089;-72
2023/05/16 03:50:36;;;;;;;14.13;2.17;;;8.40;99.90;;;;;;5077203;28;20036;-71
2023/05/16 03:53:02;;;;;;;16.73;2.65;;;8.40;99.90;;;;;;5077276;28;20051;-72
2023/05/16 03:55:29;;;;;;;17.90;2.40;;;8.30;99.90;;;;;;5060798;28;20036;-72
2023/05/16 03:57:55;;;;;;;14.88;2.17;;;8.30;99.90;;;;;;5060545;28;20036;-73
2023/05/16 04:00:21;;;;;;;14.50;2.28;;;8.30;99.90;;;;;;5076915;28;20048;-72
2023/05/16 04:02:47;;;;;;;15.95;2.72;;;8.30;99.90;;;;;;5060392;28;20040;-72
2023/05/16 04:05:12;;;;;;;16.17;2.55;;;8.40;99.90;;;;;;5060262;28;20040;-72
2023/05/16 04:07:39;;;;;;;12.55;2.40;;;8.40;99.90;;;;;;5076965;28;20063;-72
2023/05/16 04:10:06;;;;;;;14.77;2.78;;;8.40;99.90;;;;;;5060166;28;20043;-71
2023/05/16 04:12:31;;;;;;;14.98;2.35;;;8.40;99.90;;;;;;5076837;28;20036;-71
2023/05/16 04:14:57;;;;;;;13.45;2.55;;;8.40;99.90;;;;;;5060139;28;20040;-72
2023/05/16 04:17:23;;;;;;;17.17;3.15;;;8.40;99.90;;;;;;5076835;28;20075;-71
2023/05/16 04:19:49;;;;;;;17.30;2.90;;;8.40;99.90;;;;;;5060076;28;20032;-72
2023/05/16 04:22:14;;;;;;;14.10;2.72;;;8.40;99.90;;;;;;5076985;28;20085;-71
2023/05/16 04:24:40;;;;;;;13.18;2.45;;;8.40;99.90;;;;;;5076549;28;20415;-72
2023/05/16 04:27:09;;;;;;;13.40;2.33;;;8.50;99.90;;;;;;5076823;28;20050;-72
2023/05/16 04:29:35;;;;;;;10.35;2.08;;;8.50;99.90;;;;;;5076451;28;20039;-72
2023/05/16 04:32:01;;;;;;;14.55;2.65;;;8.50;99.90;;;;;;5059828;28;20085;-72
2023/05/16 04:34:26;;;;;;;15.93;2.65;;;8.50;99.90;;;;;;5076284;28;20431;-72
2023/05/16 04:36:54;;;;;;;14.20;2.70;;;8.50;99.90;;;;;;5076180;28;20488;-72
2023/05/16 04:39:19;;;;;;;17.00;2.67;;;8.50;99.90;;;;;;5076238;28;20032;-72
2023/05/16 04:41:45;;;;;;;15.35;2.53;;;8.50;99.90;;;;;;5076280;28;20047;-72
2023/05/16 04:44:11;;;;;;;14.98;2.75;;;8.50;99.90;;;;;;5059530;28;20070;-72
2023/05/16 04:46:36;;;;;;;17.58;2.80;;;8.50;99.90;;;;;;5059570;28;20040;-72
2023/05/16 04:49:02;;;;;;;13.00;2.60;;;8.50;99.90;;;;;;5076124;28;20492;-72
2023/05/16 04:51:28;;;;;;;9.07;2.10;;;8.60;99.90;;;;;;5059503;28;20040;-71
2023/05/16 04:53:54;;;;;;;14.13;2.30;;;8.60;99.90;;;;;;5059432;28;20036;-71
2023/05/16 04:56:19;;;;;;;14.48;2.10;;;8.60;99.90;;;;;;5059329;28;20040;-72
2023/05/16 04:58:45;;;;;;;18.25;2.85;;;8.70;99.90;;;;;;5076950;28;20047;-72
2023/05/16 05:01:11;;;;;;;13.82;2.95;;;8.70;99.90;;;;;;5075826;28;20044;-71
2023/05/16 05:03:37;;;;;;;13.52;2.63;;;8.80;99.90;;;;;;5075868;28;20051;-72
2023/05/16 05:06:03;;;;;;;14.05;2.17;;;8.80;99.90;;;;;;5075789;28;20044;-72
2023/05/16 05:08:29;;;;;;;11.88;2.42;;;8.80;99.90;;;;;;5058955;28;20032;-72
2023/05/16 05:10:55;;;;;;;10.75;2.03;;;8.80;99.90;;;;;;5059356;28;20127;-73
2023/05/16 05:13:21;;;;;;;15.32;2.70;;;8.90;99.90;;;;;;5059343;28;20047;-73
2023/05/16 05:15:46;;;;;;;14.25;2.80;;;8.90;99.90;;;;;;5075637;28;20504;-73
2023/05/16 05:18:12;;;;;;;14.00;1.95;;;8.90;99.90;;;;;;5075895;28;20105;-73
2023/05/16 05:20:37;;;;;;;9.05;1.88;;;9.00;99.90;;;;;;5058863;28;20483;-73
2023/05/16 05:23:03;;;;;;;19.17;2.35;;;9.00;99.90;;;;;;5059014;28;20118;-73
2023/05/16 05:25:29;;;;;;;14.13;2.72;;;9.10;99.90;;;;;;5075651;28;20056;-72
2023/05/16 05:27:54;;;;;;;12.23;1.95;;;9.20;99.90;;;;;;5075437;28;20047;-73
2023/05/16 05:30:20;;;;;;;15.40;2.75;;;9.30;99.90;;;;;;5075382;28;20043;-72
2023/05/16 05:32:46;;;;;;;11.45;1.95;;;9.40;99.90;;;;;;5059066;28;20071;-73
2023/05/16 05:35:11;;;;;;;10.80;1.95;;;9.50;99.90;;;;;;5075406;28;20450;-73
2023/05/16 05:37:37;;;;;;;12.65;2.45;;;9.50;99.90;;;;;;5059039;28;20035;-72
2023/05/16 05:40:03;;;;;;;11.60;2.05;;;9.60;99.90;;;;;;5058465;28;20519;-72
2023/05/16 05:42:28;;;;;;;10.85;2.03;;;9.60;99.90;;;;;;5075270;28;20127;-73
2023/05/16 05:44:54;;;;;;;12.77;1.83;;;9.70;99.90;;;;;;5075484;28;20036;-73
2023/05/16 05:47:20;;;;;;;10.73;2.20;;;9.70;99.90;;;;;;5075545;28;20496;-73
2023/05/16 05:49:46;;;;;;;14.45;2.58;;;9.80;99.90;;;;;;5075574;28;20479;-73
2023/05/16 05:52:14;;;;;;;10.52;2.33;;;9.90;99.90;;;;;;5058765;28;20047;-73
2023/05/16 05:54:40;;;;;;;13.70;2.38;;;9.90;99.90;;;;;;5075160;28;20032;-73
2023/05/16 05:57:05;;;;;;;12.18;2.00;;;10.00;99.90;;;;;;5075229;28;20047;-72
2023/05/16 05:59:31;;;;;;;12.27;2.28;;;10.00;99.90;;;;;;5074861;28;20036;-72
2023/05/16 06:01:57;;;;;;;13.68;2.38;;;10.10;99.90;;;;;;5058682;28;20074;-72
2023/05/16 06:04:23;;;;;;;12.02;2.15;;;10.20;99.90;;;;;;5075057;28;20131;-73
2023/05/16 06:06:49;;;;;;;11.45;2.20;;;10.20;99.90;;;;;;5075344;28;20127;-73
2023/05/16 06:09:14;;;;;;;12.18;2.30;;;10.20;99.90;;;;;;5075236;28;20127;-72
2023/05/16 06:11:42;;;;;;;14.07;2.60;;;10.20;99.90;;;;;;5074992;28;20416;-72
2023/05/16 06:14:07;;;;;;;8.90;2.10;;;10.20;99.90;;;;;;5075043;28;20040;-72
2023/05/16 06:16:33;;;;;;;11.23;2.67;;;10.30;99.90;;;;;;5075310;28;20036;-72
2023/05/16 06:18:59;;;;;;;14.07;2.40;;;10.30;99.90;;;;;;5058503;28;20573;-72
2023/05/16 06:21:25;;;;;;;13.52;1.85;;;10.40;99.90;;;;;;5074900;28;20040;-72
2023/05/16 06:23:50;;;;;;;17.83;2.92;;;10.40;99.90;;;;;;5058233;28;20047;-72
2023/05/16 06:26:16;;;;;;;12.32;2.20;;;10.50;99.90;;;;;;5074803;28;20044;-72
2023/05/16 06:28:41;;;;;;;16.25;2.00;;;10.50;99.90;;;;;;5074745;28;20085;-72
2023/05/16 06:31:08;;;;;;;12.45;2.50;;;10.60;99.90;;;;;;5074831;28;20039;-72
2023/05/16 06:33:34;;;;;;;13.98;2.05;;;10.60;99.90;;;;;;5074779;28;20043;-72
2023/05/16 06:35:59;;;;;;;10.20;2.13;;;10.70;99.90;;;;;;5075020;28;20044;-72
2023/05/16 06:38:25;;;;;;;9.02;2.03;;;10.70;99.90;;;;;;5058086;28;20057;-73
2023/05/16 06:40:51;;;;;;;12.27;2.35;;;10.80;99.90;;;;;;5075041;28;20036;-72
2023/05/16 06:43:16;;;;;;;13.23;1.95;;;10.80;99.90;;;;;;5058034;28;20485;-72
2023/05/16 06:45:43;;;;;;;8.75;2.20;;;10.90;99.90;;;;;;5074708;28;20051;-72
2023/05/16 06:48:09;;;;;;;3.10;0.90;;;11.00;99.90;;;;;;5058038;28;20587;-72
2023/05/16 06:50:35;;;;;;;8.68;1.17;;;10.90;99.90;;;;;;5074592;28;20123;-72
2023/05/16 06:53:03;;;;;;;8.48;0.80;;;10.80;99.90;;;;;;5057999;28;20036;-72
2023/05/16 06:55:29;;;;;;;5.43;0.82;;;10.70;99.90;;;;;;5074602;28;20392;-72
2023/05/16 06:57:55;;;;;;;4.75;0.70;;;10.70;99.90;;;;;;5074607;28;20530;-72
2023/05/16 07:00:21;;;;;;;5.10;0.90;;;10.60;99.90;;;;;;5078074;28;20062;-72
2023/05/16 07:02:46;;;;;;;9.50;1.40;;;10.60;99.90;;;;;;5078515;28;20079;-72
2023/05/16 07:05:12;;;;;;;5.35;0.90;;;10.50;99.90;;;;;;5078081;28;20467;-72
2023/05/16 07:07:37;;;;;;;4.75;0.90;;;10.60;99.90;;;;;;5078118;28;20032;-72
2023/05/16 07:10:03;;;;;;;5.82;0.70;;;10.70;99.90;;;;;;5061311;28;20119;-72
2023/05/16 07:12:30;;;;;;;8.02;0.95;;;10.80;99.90;;;;;;5061278;28;20104;-72
2023/05/16 07:14:55;;;;;;;6.28;0.95;;;11.00;99.90;;;;;;5061289;28;20047;-72
2023/05/16 07:17:21;;;;;;;9.68;1.30;;;11.00;99.90;;;;;;5078194;28;20036;-72
2023/05/16 07:19:49;;;;;;;13.43;1.52;;;11.10;99.90;;;;;;5077873;28;20556;-71
2023/05/16 07:22:14;;;;;;;10.40;1.20;;;11.20;99.90;;;;;;5077913;28;20055;-71
2023/05/16 07:24:40;;;;;;;7.18;1.63;;;11.30;99.90;;;;;;5077607;28;20040;-72
2023/05/16 07:27:06;;;;;;;8.27;1.20;;;11.50;99.90;;;;;;5077812;28;20082;-72
2023/05/16 07:29:31;;;;;;;6.18;1.30;;;11.60;99.90;;;;;;5077713;28;20036;-72
2023/05/16 07:31:57;;;;;;;10.48;2.05;;;11.70;99.90;;;;;;5077936;28;20067;-72
2023/05/16 07:34:22;;;;;;;6.53;1.05;;;11.80;99.90;;;;;;5077691;28;20411;-73
2023/05/16 07:36:48;;;;;;;5.88;1.42;;;11.80;99.90;;;;;;5077642;28;20036;-73
2023/05/16 07:39:14;;;;;;;5.85;0.93;;;12.00;99.90;;;;;;5060749;28;20067;-72
2023/05/16 07:41:40;;;;;;;9.15;1.83;;;12.10;99.20;;;;;;5077772;28;20103;-73
2023/05/16 07:44:05;;;;;;;9.13;1.30;;;12.20;98.40;;;;;;5077494;28;20564;-73
2023/05/16 07:46:31;;;;;;;5.68;1.02;;;12.30;98.20;;;;;;5077350;28;20048;-73
2023/05/16 07:48:56;;;;;;;6.80;1.15;;;12.30;97.00;;;;;;5077311;28;20047;-72
2023/05/16 07:51:22;;;;;;;11.20;1.70;;;12.40;96.60;;;;;;5077579;28;20071;-72
2023/05/16 07:53:47;;;;;;;9.77;1.65;;;12.50;96.50;;;;;;5077297;28;20454;-72
2023/05/16 07:56:13;;;;;;;10.73;1.88;;;12.40;95.40;;;;;;5077501;28;20032;-73
2023/05/16 07:58:40;;;;;;;7.45;1.50;;;12.40;95.20;;;;;;5077115;28;20576;-73
2023/05/16 08:01:06;;;;;;;10.80;1.40;;;12.40;94.40;;;;;;5077014;28;20036;-73
2023/05/16 08:03:31;;;;;;;11.35;1.95;;;12.40;94.70;;;;;;5077169;28;20196;-73
2023/05/16 08:05:57;;;;;;;9.45;1.73;;;12.40;94.40;;;;;;5076956;28;20039;-74
2023/05/16 08:08:22;;;;;;;9.23;1.60;;;12.40;93.70;;;;;;5060708;28;20047;-72
2023/05/16 08:10:48;;;;;;;8.05;1.73;;;12.40;93.70;;;;;;5060106;28;20471;-72
2023/05/16 08:13:14;;;;;;;9.38;1.60;;;12.30;93.50;;;;;;5077176;28;20114;-71
2023/05/16 08:15:39;;;;;;;13.57;2.15;;;12.50;93.90;;;;;;5076750;28;20115;-71
2023/05/16 08:18:13;;;;;;;11.02;1.85;;;12.60;93.60;;;;;;5076758;28;20136;-71
2023/05/16 08:20:40;;;;;;;5.75;1.17;;;12.90;93.80;;;;;;5076863;28;20561;-71
2023/05/16 08:23:06;;;;;;;8.00;1.40;;;13.10;93.10;;;;;;5076684;28;20086;-71
2023/05/16 08:25:32;;;;;;;6.47;1.30;;;13.30;93.00;;;;;;5076562;28;20595;-71
2023/05/16 08:27:57;;;;;;;8.90;1.55;;;13.40;92.20;;;;;;5076865;28;20038;-71
2023/05/16 08:30:25;;;;;;;8.90;1.15;;;13.70;91.50;;;;;;5076472;28;20404;-71
2023/05/16 08:32:50;;;;;;;6.65;1.67;;;13.90;91.40;;;;;;5076496;28;20043;-71
2023/05/16 08:35:16;;;;;;;7.95;1.55;;;13.80;90.70;;;;;;5059802;28;20036;-71
2023/05/16 08:37:41;;;;;;;9.10;1.48;;;13.80;90.40;;;;;;5076725;28;20040;-71
2023/05/16 08:40:09;;;;;;;11.13;1.90;;;13.80;90.60;;;;;;5076201;28;20496;-71
2023/05/16 08:42:36;;;;;;;8.23;1.80;;;13.90;90.00;;;;;;5059679;28;20489;-72
2023/05/16 08:45:02;;;;;;;8.27;1.27;;;14.20;88.60;;;;;;5076134;28;20048;-72
2023/05/16 08:47:30;;;;;;;8.30;1.77;;;14.30;85.80;;;;;;5076097;28;20072;-72
2023/05/16 08:49:57;;;;;;;9.57;1.30;;;14.30;83.80;;;;;;5076127;28;20043;-72
2023/05/16 08:52:29;;;;;;;6.68;1.52;;;14.60;83.40;;;;;;5076328;28;20048;-72
2023/05/16 08:54:58;;;;;;;8.63;1.52;;;14.70;80.70;;;;;;5059423;28;20500;-72
2023/05/16 08:57:25;;;;;;;6.32;1.40;;;14.60;78.80;;;;;;5076193;28;20039;-72
2023/05/16 08:59:53;;;;;;;7.35;1.25;;;14.50;78.10;;;;;;5075957;28;20417;-72
2023/05/16 09:02:21;;;;;;;8.35;1.63;;;14.50;78.30;;;;;;5076223;28;20044;-72
2023/05/16 09:04:47;;;;;;;8.38;1.50;;;14.40;76.70;;;;;;5076049;28;20040;-72
2023/05/16 09:07:13;;;;;;;6.18;1.50;;;14.50;77.20;;;;;;5075847;28;20046;-72
2023/05/16 09:09:39;;;;;;;7.45;1.42;;;14.80;78.10;;;;;;5075990;28;20040;-72
2023/05/16 09:12:07;;;;;;;9.70;1.60;;;15.00;76.90;;;;;;5075926;28;20136;-72
2023/05/16 09:14:32;;;;;;;8.25;1.63;;;14.80;75.80;;;;;;5059069;28;20086;-72
2023/05/16 09:17:06;;;;;;;8.68;1.33;;;14.60;76.60;;;;;;5075976;28;20044;-72
2023/05/16 09:19:43;;;;;;;8.70;1.50;;;14.40;76.50;;;;;;5059278;28;20075;-72
2023/05/16 09:22:13;;;;;;;10.70;1.90;;;14.10;76.40;;;;;;5075377;28;20066;-72
2023/05/16 09:24:40;;;;;;;8.38;1.83;;;14.10;77.90;;;;;;5075486;28;20075;-72
2023/05/16 09:27:10;;;;;;;8.90;1.40;;;14.30;78.10;;;;;;5075458;28;20042;-72
2023/05/16 09:29:36;;;;;;;7.90;1.40;;;14.50;78.30;;;;;;5058780;28;20123;-73
2023/05/16 09:32:16;;;;;;;9.02;1.20;;;14.80;77.90;;;;;;5075422;28;20076;-73
2023/05/16 09:34:50;;;;;;;5.78;1.50;;;15.20;76.20;;;;;;5075476;28;20032;-73
2023/05/16 09:37:16;;;;;;;10.85;1.90;;;15.30;76.60;;;;;;5075727;28;20070;-72
2023/05/16 09:39:53;;;;;;;8.65;1.70;;;15.30;75.70;;;;;;5075528;28;20032;-72
2023/05/16 09:42:20;;;;;;;8.77;1.10;;;15.20;74.80;;;;;;5058838;28;20123;-72
2023/05/16 09:44:50;;;;;;;11.65;1.50;;;15.10;74.40;;;;;;5058531;28;20516;-73
2023/05/16 09:47:17;;;;;;;5.18;1.33;;;15.30;73.40;;;;;;5058455;28;20412;-73
2023/05/16 09:49:45;;;;;;;6.80;1.05;;;15.30;71.90;;;;;;5075069;28;20043;-73
2023/05/16 09:52:11;;;;;;;6.03;1.27;;;15.20;71.00;;;;;;5075410;28;20058;-73
2023/05/16 09:54:37;;;;;;;8.13;1.30;;;15.10;72.00;;;;;;5075128;28;20047;-73
2023/05/16 09:57:03;;;;;;;7.60;1.60;;;15.20;72.00;;;;;;5075154;28;20028;-73
2023/05/16 09:59:29;;;;;;;10.85;1.58;;;15.40;71.30;;;;;;5075203;28;20035;-72
2023/05/16 10:01:58;;;;;;;10.75;1.88;;;15.50;71.50;;;;;;5058331;28;20051;-72
2023/05/16 10:04:24;;;;;;;10.27;1.63;;;15.40;73.10;;;;;;5075656;28;20051;-72
2023/05/16 10:06:53;;;;;;;9.82;1.55;;;15.10;74.70;;;;;;5058201;28;20040;-73
2023/05/16 10:09:21;;;;;;;10.02;2.20;;;14.90;75.90;;;;;;5075186;28;20036;-72
2023/05/16 10:11:48;;;;;;;7.50;1.50;;;15.00;77.70;;;;;;5058337;28;20053;-72
2023/05/16 10:14:17;;;;;;;7.72;1.58;;;15.30;78.10;;;;;;5075162;28;20115;-73
2023/05/16 10:16:47;;;;;;;6.78;1.50;;;15.70;77.60;;;;;;5058278;28;20458;-72
2023/05/16 10:19:14;;;;;;;8.50;1.50;;;15.90;76.00;;;;;;5075006;28;20047;-73
2023/05/16 10:21:53;;;;;;;10.75;2.08;;;16.20;75.40;;;;;;5074845;28;20048;-73
2023/05/16 10:24:28;;;;;;;8.95;1.63;;;16.40;73.50;;;;;;5075173;28;20524;-73
2023/05/16 10:26:53;;;;;;;9.57;1.48;;;16.70;72.20;;;;;;5074809;28;20043;-71
2023/05/16 10:29:20;;;;;;;8.45;1.77;;;16.90;71.70;;;;;;5074695;28;20032;-71
2023/05/16 10:31:47;;;;;;;8.38;1.33;;;17.10;69.80;;;;;;5058723;28;20369;-71
2023/05/16 10:34:13;;;;;;;6.47;1.00;;;16.90;68.60;;;;;;5060612;28;20089;-70
2023/05/16 10:36:39;;;;;;;7.22;1.13;;;16.90;65.50;;;;;;5079232;28;20047;-71
2023/05/16 10:39:06;;;;;;;6.38;1.48;;;16.90;65.50;;;;;;5078589;28;20036;-70
2023/05/16 10:41:33;;;;;;;8.43;1.50;;;16.90;65.70;;;;;;5078918;28;20047;-70
2023/05/16 10:44:01;;;;;;;6.32;1.23;;;16.80;66.40;;;;;;5078630;28;20451;-71
2023/05/16 10:46:30;;;;;;;4.75;1.15;;;16.80;66.90;;;;;;5078451;28;20043;-71
2023/05/16 10:48:55;;;;;;;6.70;1.10;;;16.60;66.00;;;;;;5078356;28;20389;-72
2023/05/16 10:51:21;;;;;;;6.38;1.30;;;16.50;65.90;;;;;;5061689;28;20100;-72
2023/05/16 10:53:47;;;;;;;8.93;1.20;;;16.30;66.10;;;;;;5078375;28;20032;-72
2023/05/16 10:56:12;;;;;;;11.15;2.35;;;16.30;66.60;;;;;;5078323;28;20050;-73
2023/05/16 10:58:41;;;;;;;7.47;1.10;;;16.20;66.80;;;;;;5078222;28;20067;-73
2023/05/16 11:01:29;;;;;;;7.75;1.30;;;16.00;65.60;;;;;;5061877;28;20039;-73
2023/05/16 11:03:57;;;;;;;8.73;1.35;;;15.90;64.50;;;;;;5078605;28;20032;-74
2023/05/16 11:06:25;;;;;;;5.13;1.10;;;15.70;66.00;;;;;;5078079;28;20048;-74
2023/05/16 11:09:06;;;;;;;6.47;1.33;;;15.80;66.90;;;;;;5061607;28;20143;-73
2023/05/16 11:11:58;;;;;;;8.20;1.17;;;15.80;67.00;;;;;;5078079;28;20443;-73
2023/05/16 11:14:31;;;;;;;10.18;1.30;;;15.90;67.90;;;;;;5067354;28;20408;-73
2023/05/16 11:17:02;;;;;;;8.43;1.45;;;16.10;68.00;;;;;;5078067;28;20046;-73
2023/05/16 11:19:31;;;;;;;7.50;1.30;;;16.30;67.90;;;;;;5077874;28;20482;-74
2023/05/16 11:22:17;;;;;;;7.00;1.38;;;16.40;67.90;;;;;;5077935;28;20043;-74
2023/05/16 11:24:52;;;;;;;6.63;1.40;;;16.60;66.50;;;;;;5077996;28;20048;-74
2023/05/16 11:27:25;;;;;;;8.27;1.45;;;16.60;66.60;;;;;;5077737;28;20126;-72
2023/05/16 11:29:52;;;;;;;4.90;1.15;;;16.60;65.70;;;;;;5078019;28;20517;-72
2023/05/16 11:32:22;;;;;;;7.25;1.42;;;16.60;65.80;;;;;;5077690;28;20032;-72
2023/05/16 11:34:49;;;;;;;8.80;1.98;;;16.70;66.00;;;;;;5077884;28;20051;-72
2023/05/16 11:37:16;;;;;;;10.00;1.60;;;16.70;65.00;;;;;;5077569;28;20492;-72
2023/05/16 11:39:42;;;;;;;7.97;1.42;;;16.90;65.20;;;;;;5077510;28;20512;-71
2023/05/16 11:42:08;;;;;;;8.07;1.60;;;17.10;64.40;;;;;;5077528;28;20068;-71
2023/05/16 11:44:34;;;;;;;8.90;1.50;;;17.30;63.80;;;;;;5077070;28;20119;-71
2023/05/16 11:47:01;;;;;;;9.45;1.58;;;17.50;63.20;;;;;;5077430;28;20127;-72
2023/05/16 11:49:27;;;;;;;6.63;1.05;;;17.50;62.90;;;;;;5077585;28;20349;-71
2023/05/16 11:51:55;;;;;;;6.95;1.52;;;17.30;62.70;;;;;;5077580;28;20074;-72
2023/05/16 11:54:21;;;;;;;6.10;1.60;;;17.20;63.20;;;;;;5077588;28;20043;-72
2023/05/16 11:56:48;;;;;;;10.50;2.33;;;16.90;64.10;;;;;;5077289;28;20039;-72
2023/05/16 11:59:14;;;;;;;8.75;1.75;;;16.60;64.10;;;;;;5060891;28;20148;-71
2023/05/16 12:01:40;;;;;;;9.18;1.90;;;16.20;65.80;;;;;;5077173;28;20500;-71
2023/05/16 12:04:11;;;;;;;8.95;2.58;;;15.90;68.70;;;;;;5077118;28;20048;-71
2023/05/16 12:06:37;;;;;;;6.22;1.52;;;15.60;68.50;;;;;;5060299;28;20110;-71
2023/05/16 12:09:09;;;;;;;6.53;1.67;;;15.50;69.30;;;;;;5077004;28;20044;-71
2023/05/16 12:11:39;;;;;;;10.35;1.60;;;15.90;70.50;;;;;;5060198;28;20032;-71
2023/05/16 12:14:06;;;;;;;7.13;1.80;;;16.00;71.20;;;;;;5076956;28;20075;-71
2023/05/16 12:16:33;;;;;;;9.77;1.70;;;15.90;71.00;;;;;;5076827;28;20040;-71
2023/05/16 12:19:00;;;;;;;7.97;1.85;;;16.00;72.00;;;;;;5076674;28;20051;-71
2023/05/16 12:21:26;;;;;;;11.88;2.55;;;15.90;72.50;;;;;;5076916;28;20040;-72
2023/05/16 12:23:58;;;;;;;7.15;2.05;;;15.70;73.90;;;;;;5076773;28;20047;-72
2023/05/16 12:26:30;;;;;;;9.20;2.20;;;15.50;76.70;;;;;;5076580;28;20043;-72
2023/05/16 12:29:02;;;;;;;10.52;2.00;;;15.40;79.10;;;;;;5076534;28;20047;-72
2023/05/16 12:31:29;;;;;;;9.18;1.92;;;15.70;80.40;;;;;;5076813;28;20059;-71
2023/05/16 12:33:56;;;;;;;12.05;2.45;;;15.70;80.40;;;;;;5076545;28;20040;-72
2023/05/16 12:36:23;;;;;;;13.57;2.17;;;15.70;79.80;;;;;;5076665;28;20047;-72
2023/05/16 12:38:50;;;;;;;8.95;2.38;;;15.50;79.00;;;;;;5076363;28;20069;-72
2023/05/16 12:41:21;;;;;;;10.30;2.17;;;15.40;79.30;;;;;;5076659;28;20059;-72
2023/05/16 12:43:50;;;;;;;8.68;2.40;;;15.80;82.10;;;;;;5059732;28;20043;-72
2023/05/16 12:46:18;;;;;;;10.25;2.72;;;16.10;80.40;;;;;;5059596;28;20044;-72